Time;durP1;ratioP1;P1;durP2;ratioP2;P2;SDS_P1;SDS_P2;PMS_P1;PMS_P2;Temp;Humidity;BMP_temperature;BMP_pressure;BME280_temperature;BME280_humidity;BME280_pressure;Samples;Min_cycle;Max_cycle;Signal;HPM_P1;HPM_P2
2022/09/28 05:36:59;;;;;;;;;;;;;;;8.01;77.38;-25290.00;5024565;28;20441;-83
2022/09/28 05:43:25;;;;;;;;;;;;;;;8.10;77.00;-25292.66;5025173;28;20396;-83
2022/09/28 05:46:20;;;;;;;;;;;;;;;8.08;76.98;-25292.22;5034408;28;19922;-83
2022/09/28 05:52:00;;;;;;;;;;;;;;;8.27;76.59;-25297.66;4973618;28;19948;-83
2022/09/28 05:55:04;;;;;;;;;;;;;;;8.37;76.41;-25300.31;4965178;28;19950;-82
2022/09/28 05:58:14;;;;;;;;;;;;;;;8.35;76.48;-25299.72;4940760;29;19993;-81
2022/09/28 06:01:25;;;;;;;;;;;;;;;8.37;76.56;-25300.31;4930281;28;19922;-82
2022/09/28 06:04:35;;;;;;;;;;;;;;;8.42;76.69;-25301.94;4951406;29;19922;-82
2022/09/28 06:07:43;;;;;;;;;;;;;;;8.34;77.14;-25299.59;4951298;29;20416;-81
2022/09/28 06:10:30;;;;;;;;;;;;;;;8.48;77.31;-25303.41;4951388;29;20632;-82
2022/09/28 06:13:35;;;;;;;;;;;;;;;8.61;77.52;-25307.25;4931054;29;20067;-82
2022/09/28 06:16:24;;;;;;;;;;;;;;;8.67;78.68;-25308.88;4951859;29;19918;-83
2022/09/28 06:18:59;;;;;;;;;;;;;;;8.66;79.98;-25308.72;4939142;29;20430;-82
2022/09/28 06:21:26;;;;;;;;;;;;;;;8.66;81.08;-25308.72;4941197;28;20037;-83
2022/09/28 06:23:58;;;;;;;;;;;;;;;8.71;82.03;-25310.03;4978140;28;20004;-82
2022/09/28 06:27:07;;;;;;;;;;;;;;;8.58;84.78;-25306.50;4995263;28;20352;-82
2022/09/28 06:29:52;;;;;;;;;;;;;;;8.43;88.31;-25302.25;4995015;28;19917;-82
2022/09/28 06:33:05;;;;;;;;;;;;;;;8.36;90.78;-25300.03;4976843;28;20334;-82
2022/09/28 06:35:51;;;;;;;;;;;;;;;8.29;94.21;-25298.13;4962375;28;19957;-83
2022/09/28 06:41:48;;;;;;;;;;;;;;;8.45;95.49;-25302.69;4995003;28;19924;-83
2022/09/28 06:44:59;;;;;;;;;;;;;;;8.67;93.79;-25309.00;4984661;28;20017;-83
2022/09/28 06:48:26;;;;;;;;;;;;;;;9.01;95.83;-25318.56;4968424;28;19917;-83
2022/09/28 06:51:51;;;;;;;;;;;;;;;9.50;94.66;-25332.69;4919320;29;20246;-83
2022/09/28 06:55:02;;;;;;;;;;;;;;;9.88;100.00;-25343.56;4919257;29;20619;-83
2022/09/28 06:58:14;;;;;;;;;;;;;;;10.22;100.00;-25353.25;4957091;29;19919;-83
2022/09/28 07:04:04;;;;;;;;;;;;;;;10.24;100.00;-25353.84;4976772;28;20358;-83
2022/09/28 07:06:53;;;;;;;;;;;;;;;10.37;100.00;-25357.66;4975613;28;19969;-82
2022/09/28 07:09:42;;;;;;;;;;;;;;;10.41;100.00;-25358.84;4960183;28;19922;-83
2022/09/28 07:12:46;;;;;;;;;;;;;;;10.62;100.00;-25364.69;4976684;28;19918;-82
2022/09/28 07:15:47;;;;;;;;;;;;;;;10.72;100.00;-25367.47;4976114;28;19951;-82
2022/09/28 07:18:19;;;;;;;;;;;;;;;10.75;100.00;-25368.38;4959936;28;19964;-82
2022/09/28 07:20:51;;;;;;;;;;;;;;;10.80;100.00;-25369.69;4975565;28;19919;-82
2022/09/28 07:23:47;;;;;;;;;;;;;;;10.96;100.00;-25374.38;4960394;28;19954;-82
2022/09/28 07:26:44;;;;;;;;;;;;;;;11.09;100.00;-25378.19;4964215;28;19928;-82
2022/09/28 07:29:48;;;;;;;;;;;;;;;11.08;100.00;-25377.75;5013515;28;19922;-81
2022/09/28 07:32:25;;;;;;;;;;;;;;;11.10;100.00;-25378.34;5015445;28;19917;-81
2022/09/28 07:34:52;;;;;;;;;;;;;;;11.16;100.00;-25379.94;5007773;28;20374;-82
2022/09/28 07:37:40;;;;;;;;;;;;;;;11.08;100.00;-25377.91;4982876;28;20380;-82
2022/09/28 07:43:13;;;;;;;;;;;;;;;11.10;100.00;-25378.47;5037631;28;20328;-81
2022/09/28 07:45:47;;;;;;;;;;;;;;;11.35;100.00;-25385.50;5026447;28;19917;-82
2022/09/28 07:48:25;;;;;;;;;;;;;;;11.36;100.00;-25385.66;4983207;28;19964;-82
2022/09/28 07:50:52;;;;;;;;;;;;;;;11.57;100.00;-25391.66;4999060;28;19922;-82
2022/09/28 07:53:39;;;;;;;;;;;;;;;12.32;100.00;-25413.19;4998723;28;19948;-82
2022/09/28 07:56:08;;;;;;;;;;;;;;;13.27;100.00;-25440.22;5015555;28;20263;-82
2022/09/28 07:58:39;;;;;;;;;;;;;;;13.88;100.00;-25457.28;4982206;28;20132;-82
2022/09/28 08:01:09;;;;;;;;;;;;;;;14.30;100.00;-25469.25;5015602;28;19917;-82
2022/09/28 08:03:36;;;;;;;;;;;;;;;14.25;100.00;-25467.78;5017325;28;19932;-82
2022/09/28 08:06:03;;;;;;;;;;;;;;;14.42;100.00;-25472.75;5017115;28;19928;-82
2022/09/28 08:08:55;;;;;;;;;;;;;;;14.55;100.00;-18900.16;5034658;28;19975;-82
2022/09/28 08:11:20;;;;;;;;;;;;;;;14.91;100.00;-8358.16;5017399;28;19917;-82
2022/09/28 08:13:51;;;;;;;;;;;;;;;15.14;100.00;1891.78;5017038;28;20397;-83
2022/09/28 08:16:26;;;;;;;;;;;;;;;15.39;100.00;17827.34;5034703;28;20366;-83
2022/09/28 08:18:53;;;;;;;;;;;;;;;15.55;100.00;51578.91;5035058;28;19917;-83
2022/09/28 08:24:29;;;;;;;;;;;;;;;14.97;100.00;139989.84;5020817;28;20011;-83
2022/09/28 08:27:02;;;;;;;;;;;;;;;15.33;100.00;146592.06;5034186;28;20293;-84
2022/09/28 08:29:50;;;;;;;;;;;;;;;15.59;100.00;146657.16;5035683;28;19917;-83
2022/09/28 08:32:18;;;;;;;;;;;;;;;15.06;100.00;146524.44;5035713;28;19953;-83
2022/09/28 08:35:04;;;;;;;;;;;;;;;14.36;100.00;146350.88;5017700;28;19928;-83
2022/09/28 08:37:53;;;;;;;;;;;;;;;14.40;100.00;139168.47;5015426;28;19917;-83
2022/09/28 08:40:44;;;;;;;;;;;;;;;14.54;100.00;116669.88;5035849;28;19924;-82
2022/09/28 08:43:24;;;;;;;;;;;;;;;14.70;100.00;104799.00;5018517;28;19948;-83
2022/09/28 08:45:55;;;;;;;;;;;;;;;14.64;100.00;81426.75;5033135;28;19917;-82
2022/09/28 08:48:52;;;;;;;;;;;;;;;14.72;100.00;66946.44;5013725;28;19925;-82
2022/09/28 08:51:57;;;;;;;;;;;;;;;14.68;100.00;58876.38;5023047;28;19960;-82
2022/09/28 08:55:10;;;;;;;;;;;;;;;14.51;100.00;49136.94;5019376;28;19921;-82
2022/09/28 09:01:42;;;;;;;;;;;;;;;14.42;100.00;66909.75;5036546;28;19975;-81
2022/09/28 09:04:53;;;;;;;;;;;;;;;14.49;100.00;59526.91;5018575;28;19922;-82
2022/09/28 09:07:55;;;;;;;;;;;;;;;14.31;100.00;55818.72;5024713;28;19921;-83
2022/09/28 09:10:35;;;;;;;;;;;;;;;14.28;100.00;58833.34;5010115;28;19941;-83
2022/09/28 09:13:43;;;;;;;;;;;;;;;14.03;100.00;63840.16;4997335;28;20405;-81
2022/09/28 09:16:24;;;;;;;;;;;;;;;13.99;100.00;68203.94;4976020;28;20417;-82
2022/09/28 09:22:42;;;;;;;;;;;;;;;13.31;100.00;61746.34;4968292;28;19928;-83
2022/09/28 09:25:46;;;;;;;;;;;;;;;13.09;100.00;66752.19;4944397;29;20370;-83
2022/09/28 09:32:01;;;;;;;;;;;;;;;12.61;100.00;60330.47;4935893;29;20394;-82
2022/09/28 09:35:04;;;;;;;;;;;;;;;12.65;100.00;42965.81;4916234;29;19919;-82
2022/09/28 09:38:09;;;;;;;;;;;;;;;12.90;100.00;31001.16;4916380;29;19923;-83
2022/09/28 09:40:57;;;;;;;;;;;;;;;12.94;100.00;23033.25;4916867;29;19962;-84
2022/09/28 09:47:21;;;;;;;;;;;;;;;13.53;100.00;24722.38;4936167;29;19966;-84
2022/09/28 09:53:29;;;;;;;;;;;;;;;13.59;100.00;27384.56;4859263;29;19944;-83
2022/09/28 09:59:35;;;;;;;;;;;;;;;13.68;100.00;58099.94;4768266;30;19972;-82
2022/09/28 10:02:51;;;;;;;;;;;;;;;13.66;100.00;62456.50;4808945;29;19933;-82
2022/09/28 10:12:19;;;;;;;;;;;;;;;13.96;100.00;80318.66;4826594;29;19943;-80
2022/09/28 10:14:48;;;;;;;;;;;;;;;14.12;100.00;106729.47;4889551;29;19923;-78
2022/09/28 10:17:15;;;;;;;;;;;;;;;14.46;100.00;133709.72;4916868;29;19918;-78
2022/09/28 10:23:22;;;;;;;;;;;;;;;14.69;100.00;146432.56;5015045;28;19924;-82
2022/09/28 10:25:50;;;;;;;;;;;;;;;14.93;100.00;146492.56;4998572;28;19918;-84
2022/09/28 10:28:19;;;;;;;;;;;;;;;14.80;100.00;146460.63;5014125;28;19926;-84
2022/09/28 10:30:44;;;;;;;;;;;;;;;15.03;100.00;146516.78;5013496;28;20036;-78
2022/09/28 10:33:41;;;;;;;;;;;;;;;15.24;100.00;146570.41;5023788;28;19956;-84
2022/09/28 10:36:07;;;;;;;;;;;;;;;15.54;100.00;146643.16;4988565;28;20421;-82
2022/09/28 10:38:32;;;;;;;;;;;;;;;15.80;100.00;146708.34;4997200;28;20141;-80
2022/09/28 10:40:59;;;;;;;;;;;;;;;15.79;100.00;146705.75;4996848;28;19921;-84
2022/09/28 10:43:29;;;;;;;;;;;;;;;15.50;100.00;146634.19;5002385;28;19921;-86
2022/09/28 10:46:08;;;;;;;;;;;;;;;15.08;100.00;146530.78;5007875;28;19980;-84
2022/09/28 10:48:39;;;;;;;;;;;;;;;15.02;100.00;146515.53;4999131;28;19917;-77
2022/09/28 10:51:06;;;;;;;;;;;;;;;15.15;100.00;146546.09;4997861;28;19952;-79
2022/09/28 10:53:36;;;;;;;;;;;;;;;15.47;100.00;146626.53;4997273;28;20064;-79
2022/09/28 10:56:07;;;;;;;;;;;;;;;15.36;100.00;146599.72;4997620;28;19952;-80
2022/09/28 10:58:39;;;;;;;;;;;;;;;15.60;100.00;146658.47;4997142;28;19921;-78
2022/09/28 11:01:08;;;;;;;;;;;;;;;15.95;100.00;146745.34;5013767;28;19959;-79
2022/09/28 11:03:38;;;;;;;;;;;;;;;15.91;100.00;146735.09;4996058;28;19918;-82
2022/09/28 11:06:06;;;;;;;;;;;;;;;16.07;100.00;146776.00;4998943;28;19968;-84
2022/09/28 11:08:38;;;;;;;;;;;;;;;16.07;100.00;146776.00;5002049;28;20373;-83
2022/09/28 11:11:08;;;;;;;;;;;;;;;15.98;100.00;146754.25;4998923;28;19976;-80
2022/09/28 11:13:40;;;;;;;;;;;;;;;15.77;100.00;146700.66;4999058;28;19984;-80
2022/09/28 11:16:08;;;;;;;;;;;;;;;15.88;100.00;146728.75;5016077;28;19917;-81
2022/09/28 11:18:33;;;;;;;;;;;;;;;16.15;100.00;146796.41;5018424;28;20289;-81
2022/09/28 11:21:09;;;;;;;;;;;;;;;15.84;100.00;146717.25;5019064;28;19917;-80
2022/09/28 11:23:36;;;;;;;;;;;;;;;15.82;100.00;146713.41;5014942;28;19971;-81
2022/09/28 11:26:06;;;;;;;;;;;;;;;15.67;100.00;146676.31;5016398;28;20415;-80
2022/09/28 11:28:37;;;;;;;;;;;;;;;15.58;100.00;146653.34;5019061;28;20761;-80
2022/09/28 11:31:05;;;;;;;;;;;;;;;15.85;100.00;146721.09;5040094;28;20293;-81
2022/09/28 11:33:43;;;;;;;;;;;;;;;16.13;100.00;146791.31;5019867;28;19924;-80
2022/09/28 11:36:19;;;;;;;;;;;;;;;15.94;100.00;146744.06;5019901;28;19975;-81
2022/09/28 11:38:47;;;;;;;;;;;;;;;16.13;100.00;146790.06;5021608;28;19917;-79
2022/09/28 11:41:31;;;;;;;;;;;;;;;16.24;100.00;146816.88;5020782;28;19913;-80
2022/09/28 11:44:11;;;;;;;;;;;;;;;16.18;100.00;146802.81;5019945;28;19924;-80
2022/09/28 11:46:50;;;;;;;;;;;;;;;16.24;100.00;146816.88;5019654;28;19996;-80
2022/09/28 11:49:19;;;;;;;;;;;;;;;16.36;100.00;146847.53;5018819;28;19924;-82
2022/09/28 11:51:45;;;;;;;;;;;;;;;16.17;100.00;146798.97;5019748;28;20550;-79
2022/09/28 11:54:22;;;;;;;;;;;;;;;15.96;100.00;146747.91;5034821;28;19917;-80
2022/09/28 11:56:49;;;;;;;;;;;;;;;16.19;100.00;146804.06;5019037;28;19917;-80
2022/09/28 11:59:26;;;;;;;;;;;;;;;16.20;100.00;146806.63;5017701;28;19975;-83
2022/09/28 12:01:58;;;;;;;;;;;;;;;16.22;100.00;146813.03;5002233;28;19929;-79
2022/09/28 12:04:28;;;;;;;;;;;;;;;16.03;100.00;146765.75;5034875;28;20254;-80
2022/09/28 12:07:06;;;;;;;;;;;;;;;16.14;100.00;146793.88;5036363;28;19921;-81
2022/09/28 12:09:38;;;;;;;;;;;;;;;16.04;100.00;146767.06;5018151;28;19960;-80
2022/09/28 12:12:12;;;;;;;;;;;;;;;16.14;100.00;146793.88;5018213;28;19921;-79
2022/09/28 12:14:38;;;;;;;;;;;;;;;16.36;100.00;146846.22;5018352;28;19921;-82
2022/09/28 12:17:08;;;;;;;;;;;;;;;16.18;100.00;146802.81;5018029;28;19918;-79
2022/09/28 12:19:34;;;;;;;;;;;;;;;15.91;100.00;146735.09;5017817;28;20370;-80
2022/09/28 12:22:02;;;;;;;;;;;;;;;15.80;100.00;146708.34;5034916;28;19950;-79
2022/09/28 12:24:33;;;;;;;;;;;;;;;15.66;100.00;146673.81;5016733;28;20381;-79
2022/09/28 12:27:10;;;;;;;;;;;;;;;15.63;100.00;146666.16;5033584;28;19939;-80
2022/09/28 12:29:40;;;;;;;;;;;;;;;15.54;100.00;146643.16;5033993;28;20423;-79
2022/09/28 12:32:24;;;;;;;;;;;;;;;15.20;100.00;146558.91;5016202;28;20001;-78
2022/09/28 12:34:49;;;;;;;;;;;;;;;14.84;100.00;146469.56;5016289;28;20007;-78
2022/09/28 12:37:22;;;;;;;;;;;;;;;14.51;100.00;146387.84;5016044;28;20346;-79
2022/09/28 12:39:50;;;;;;;;;;;;;;;14.45;100.00;146373.84;5016689;28;19917;-78
2022/09/28 12:42:27;;;;;;;;;;;;;;;14.25;100.00;146322.81;5016946;28;19962;-79
2022/09/28 12:45:01;;;;;;;;;;;;;;;14.28;100.00;146331.75;5017040;28;19917;-79
2022/09/28 12:47:39;;;;;;;;;;;;;;;14.25;100.00;146322.81;5001023;28;19923;-78
2022/09/28 12:50:05;;;;;;;;;;;;;;;14.09;100.00;146284.56;5034795;28;19917;-77
2022/09/28 12:52:42;;;;;;;;;;;;;;;13.92;100.00;146242.47;5017745;28;20372;-85
2022/09/28 12:55:17;;;;;;;;;;;;;;;13.89;100.00;146233.53;5039516;28;20083;-86
2022/09/28 12:57:57;;;;;;;;;;;;;;;13.95;100.00;146250.13;5023666;28;19928;-84
2022/09/28 13:00:28;;;;;;;;;;;;;;;14.10;100.00;146285.81;5017377;28;19949;-87
2022/09/28 13:03:17;;;;;;;;;;;;;;;14.18;100.00;146307.53;4998501;28;19929;-85
2022/09/28 13:05:55;;;;;;;;;;;;;;;14.18;100.00;146307.53;4998936;28;19922;-84
2022/09/28 13:08:32;;;;;;;;;;;;;;;14.05;100.00;146273.09;4999028;28;19964;-86
2022/09/28 13:10:57;;;;;;;;;;;;;;;13.79;100.00;146209.31;4998980;28;19936;-79
2022/09/28 13:13:28;;;;;;;;;;;;;;;13.74;100.00;146197.84;5025918;28;20651;-79
2022/09/28 13:15:54;;;;;;;;;;;;;;;13.58;100.00;146157.00;4996894;28;19924;-79
2022/09/28 13:18:19;;;;;;;;;;;;;;;13.74;100.00;146196.56;4997166;28;19921;-80
2022/09/28 13:20:48;;;;;;;;;;;;;;;13.87;100.00;146229.69;4997307;28;19982;-79
2022/09/28 13:23:29;;;;;;;;;;;;;;;13.84;100.00;146222.03;5014295;28;19944;-78
2022/09/28 13:26:22;;;;;;;;;;;;;;;13.87;100.00;146229.69;5004851;28;19975;-79
2022/09/28 13:28:50;;;;;;;;;;;;;;;14.00;100.00;146262.88;5013219;28;20374;-78
2022/09/28 13:31:22;;;;;;;;;;;;;;;13.99;100.00;146260.31;4980019;28;19922;-78
2022/09/28 13:33:51;;;;;;;;;;;;;;;14.00;100.00;146261.59;4996558;28;19918;-79
2022/09/28 13:36:29;;;;;;;;;;;;;;;13.62;100.00;146168.50;5013825;28;19913;-78
2022/09/28 13:38:55;;;;;;;;;;;;;;;13.54;100.00;146148.09;4996733;28;20056;-80
2022/09/28 13:41:27;;;;;;;;;;;;;;;13.40;100.00;146112.44;4980211;28;20305;-77
2022/09/28 13:44:21;;;;;;;;;;;;;;;13.36;100.00;146103.53;4997040;28;19917;-82
2022/09/28 13:47:02;;;;;;;;;;;;;;;13.08;100.00;146033.34;5010995;28;19937;-83
2022/09/28 13:49:44;;;;;;;;;;;;;;;13.21;100.00;146066.50;4993523;28;19924;-82
2022/09/28 13:52:29;;;;;;;;;;;;;;;13.33;100.00;146094.53;4995423;28;19917;-83
2022/09/28 13:55:17;;;;;;;;;;;;;;;13.33;100.00;146095.88;5013192;28;19932;-80
2022/09/28 13:58:23;;;;;;;;;;;;;;;13.32;100.00;146092.00;5013793;28;20370;-82
2022/09/28 14:01:33;;;;;;;;;;;;;;;13.08;100.00;146034.66;5013454;28;19929;-82
2022/09/28 14:04:31;;;;;;;;;;;;;;;13.16;100.00;146053.78;5011435;28;19928;-82
2022/09/28 14:07:30;;;;;;;;;;;;;;;13.33;100.00;146095.88;5009994;28;19921;-82
2022/09/28 14:10:44;;;;;;;;;;;;;;;13.58;100.00;146158.31;4991048;28;19976;-81
2022/09/28 14:13:35;;;;;;;;;;;;;;;13.76;100.00;146202.91;4994955;28;19921;-82
2022/09/28 14:16:27;;;;;;;;;;;;;;;13.67;100.00;146179.97;4967773;28;19928;-83
2022/09/28 14:19:12;;;;;;;;;;;;;;;13.81;100.00;146215.69;5023182;28;19917;-79
2022/09/28 14:22:05;;;;;;;;;;;;;;;13.92;100.00;146242.47;5011806;28;19929;-82
2022/09/28 14:47:01;;;;;;;;;;;;;;;13.33;100.00;146094.53;4864033;29;19986;-82
2022/09/28 14:50:21;;;;;;;;;;;;;;;12.89;100.00;145987.47;4832739;29;19964;-82
2022/09/28 14:53:18;;;;;;;;;;;;;;;12.66;100.00;145928.88;4822093;29;19925;-82
2022/09/28 14:56:03;;;;;;;;;;;;;;;12.63;100.00;145921.22;4805045;29;20014;-82
2022/09/28 15:01:59;;;;;;;;;;;;;;;12.57;100.00;145908.50;4840653;29;19937;-82
2022/09/28 15:05:04;;;;;;;;;;;;;;;12.62;100.00;145918.72;4817097;29;19921;-82
2022/09/28 15:08:09;;;;;;;;;;;;;;;12.42;100.00;145870.28;4813938;29;19917;-81
2022/09/28 15:10:48;;;;;;;;;;;;;;;12.40;100.00;145865.22;4816526;29;19943;-80
2022/09/28 15:23:04;;;;;;;;;;;;;;;12.27;100.00;145832.09;4956067;29;19931;-81
2022/09/28 15:26:05;;;;;;;;;;;;;;;12.16;100.00;145806.59;4953987;28;19926;-80
2022/09/28 15:28:56;;;;;;;;;;;;;;;12.16;100.00;145806.59;4959410;28;19969;-81
2022/09/28 15:39:07;;;;;;;;;;;;;;;11.99;100.00;145763.31;4982685;28;20321;-82
2022/09/28 15:41:57;;;;;;;;;;;;;;;11.87;100.00;145203.19;4933588;29;19927;-80
2022/09/28 15:45:13;;;;;;;;;;;;;;;11.84;100.00;134136.59;4918173;29;20387;-80
2022/09/28 15:48:22;;;;;;;;;;;;;;;11.72;100.00;119158.75;4880207;29;19969;-82
2022/09/28 15:51:51;;;;;;;;;;;;;;;11.57;100.00;107614.56;4879991;29;20444;-80
2022/09/28 15:55:04;;;;;;;;;;;;;;;11.48;100.00;93087.63;4858217;29;19920;-80
2022/09/28 15:58:26;;;;;;;;;;;;;;;11.45;100.00;75938.56;4789453;29;19998;-80
2022/09/28 16:01:51;;;;;;;;;;;;;;;11.44;100.00;65887.84;4786979;29;19926;-79
2022/09/28 16:14:07;;;;;;;;;;;;;;;11.63;100.00;44214.75;4753009;30;19953;-80
2022/09/28 16:17:13;;;;;;;;;;;;;;;11.56;100.00;47205.75;4773564;30;19926;-80
2022/09/28 16:23:22;;;;;;;;;;;;;;;11.52;100.00;37887.47;4735186;30;19983;-81
2022/09/28 16:26:31;;;;;;;;;;;;;;;11.53;100.00;40879.69;4824168;29;19921;-80
2022/09/28 16:29:50;;;;;;;;;;;;;;;11.49;100.00;41542.00;4836407;29;20307;-81
2022/09/28 16:36:09;;;;;;;;;;;;;;;11.31;100.00;54515.13;4861068;29;19931;-79
2022/09/28 16:39:20;;;;;;;;;;;;;;;11.36;100.00;55854.25;4859520;29;19931;-79
2022/09/28 16:45:51;;;;;;;;;;;;;;;11.26;100.00;44184.25;4823786;29;19928;-79
2022/09/28 16:49:01;;;;;;;;;;;;;;;11.23;100.00;37534.53;4841830;29;19920;-80
2022/09/28 16:55:31;;;;;;;;;;;;;;;11.01;100.00;24924.50;4804736;29;19964;-79
2022/09/28 16:58:51;;;;;;;;;;;;;;;10.84;100.00;19296.16;4831250;29;19944;-79
2022/09/28 17:02:03;;;;;;;;;;;;;;;10.67;100.00;14338.72;4849238;29;19920;-80
2022/09/28 17:05:09;;;;;;;;;;;;;;;10.72;100.00;8407.81;4799576;29;19928;-79
2022/09/28 17:08:22;;;;;;;;;;;;;;;10.64;100.00;6759.50;4861017;29;20320;-80
2022/09/28 17:11:28;;;;;;;;;;;;;;;10.60;100.00;4126.59;4892648;29;19919;-80
2022/09/28 17:14:35;;;;;;;;;;;;;;;10.59;100.00;1824.63;4923833;29;20005;-79
2022/09/28 17:17:49;;;;;;;;;;;;;;;10.49;100.00;-476.72;4943832;28;19927;-79
2022/09/28 17:21:00;;;;;;;;;;;;;;;10.54;100.00;-3103.22;4949357;28;20498;-80
2022/09/28 17:24:05;;;;;;;;;;;;;;;10.45;100.00;-5072.63;4945666;28;19918;-79
2022/09/28 17:27:20;;;;;;;;;;;;;;;10.32;100.00;-7040.50;4928909;29;19969;-80
2022/09/28 17:30:27;;;;;;;;;;;;;;;10.27;100.00;-9334.34;4944393;28;20514;-80
2022/09/28 17:33:49;;;;;;;;;;;;;;;10.28;100.00;-11626.88;4972349;28;19981;-79
2022/09/28 17:36:57;;;;;;;;;;;;;;;10.20;100.00;-13262.78;5025110;28;19924;-81
2022/09/28 17:39:51;;;;;;;;;;;;;;;10.09;100.00;-14570.13;5034554;28;19916;-79
2022/09/28 17:42:56;;;;;;;;;;;;;;;10.02;100.00;-16204.16;4974135;28;20339;-81
2022/09/28 17:45:44;;;;;;;;;;;;;;;9.92;100.00;-17183.06;4956418;28;19929;-78
2022/09/28 17:48:55;;;;;;;;;;;;;;;9.88;100.00;-18815.66;4976539;28;19929;-79
2022/09/28 17:52:00;;;;;;;;;;;;;;;9.87;100.00;-20448.09;4951339;29;19954;-80
2022/09/28 17:55:29;;;;;;;;;;;;;;;9.83;100.00;-21752.69;4933295;28;20447;-80
2022/09/28 17:58:39;;;;;;;;;;;;;;;9.83;100.00;-24362.22;4885181;29;19918;-80
2022/09/28 18:01:38;;;;;;;;;;;;;;;9.74;100.00;-25337.69;4935255;29;19967;-81
2022/09/28 18:04:39;;;;;;;;;;;;;;;9.75;100.00;-25339.75;4916962;29;19966;-81
2022/09/28 18:07:51;;;;;;;;;;;;;;;9.64;100.00;-25336.81;4928844;29;19915;-79
2022/09/28 18:10:28;;;;;;;;;;;;;;;9.64;100.00;-25336.81;4886885;29;19919;-80
2022/09/28 18:13:23;;;;;;;;;;;;;;;9.55;100.00;-25334.16;4911628;29;19919;-82
2022/09/28 18:16:30;;;;;;;;;;;;;;;9.38;100.00;-25329.16;4915259;29;20308;-82
2022/09/28 18:19:59;;;;;;;;;;;;;;;9.27;100.00;-25326.22;4898955;29;19923;-82
2022/09/28 18:23:11;;;;;;;;;;;;;;;9.11;100.00;-25321.66;4907168;29;20023;-82
2022/09/28 18:26:21;;;;;;;;;;;;;;;9.18;100.00;-25323.44;4937062;29;19926;-82
2022/09/28 18:29:37;;;;;;;;;;;;;;;9.24;100.00;-25325.34;4935816;29;19922;-82
2022/09/28 18:32:45;;;;;;;;;;;;;;;9.30;100.00;-25327.09;4932938;29;19922;-81
2022/09/28 18:35:55;;;;;;;;;;;;;;;9.30;100.00;-25327.09;4901263;29;19926;-82
2022/09/28 18:38:28;;;;;;;;;;;;;;;9.24;100.00;-25325.19;4929594;29;20080;-84
2022/09/28 18:40:58;;;;;;;;;;;;;;;9.14;100.00;-25322.53;4915507;29;19934;-82
2022/09/28 18:43:34;;;;;;;;;;;;;;;9.01;100.00;-25318.72;4939833;29;20362;-82
2022/09/28 18:46:04;;;;;;;;;;;;;;;8.94;100.00;-25316.81;4918442;28;19934;-79
2022/09/28 18:48:34;;;;;;;;;;;;;;;8.87;100.00;-25314.75;4980325;28;19953;-79
2022/09/28 18:51:02;;;;;;;;;;;;;;;8.86;100.00;-25314.47;4979765;28;19957;-81
2022/09/28 18:53:37;;;;;;;;;;;;;;;8.86;100.00;-25314.31;4957571;28;20020;-84
2022/09/28 18:56:13;;;;;;;;;;;;;;;8.87;100.00;-25314.59;4974942;28;19923;-83
2022/09/28 18:58:51;;;;;;;;;;;;;;;8.90;100.00;-25315.47;4975746;28;19922;-81
2022/09/28 19:01:35;;;;;;;;;;;;;;;8.93;100.00;-25316.38;4969740;28;19922;-82
2022/09/28 19:04:12;;;;;;;;;;;;;;;8.88;100.00;-25315.03;4966643;28;19968;-79
2022/09/28 19:06:39;;;;;;;;;;;;;;;8.88;100.00;-25314.91;4961292;28;20438;-78
2022/09/28 19:09:08;;;;;;;;;;;;;;;8.89;100.00;-25315.19;4961688;28;19922;-78
2022/09/28 19:11:34;;;;;;;;;;;;;;;8.89;100.00;-25315.19;4976776;28;19929;-82
2022/09/28 19:13:59;;;;;;;;;;;;;;;8.90;100.00;-25315.47;4944062;28;19922;-83
2022/09/28 19:16:27;;;;;;;;;;;;;;;8.92;100.00;-25316.22;4982466;28;19921;-85
2022/09/28 19:18:56;;;;;;;;;;;;;;;8.87;100.00;-25314.59;4983583;28;19918;-81
2022/09/28 19:21:22;;;;;;;;;;;;;;;8.75;100.00;-25311.22;4960331;28;19918;-80
2022/09/28 19:23:54;;;;;;;;;;;;;;;8.77;100.00;-25311.81;4977343;28;19930;-81
2022/09/28 19:26:26;;;;;;;;;;;;;;;8.63;100.00;-25307.97;4997724;28;19975;-81
2022/09/28 19:28:55;;;;;;;;;;;;;;;8.64;100.00;-25308.13;5007830;28;20275;-83
2022/09/28 19:31:23;;;;;;;;;;;;;;;8.61;100.00;-25307.41;5007615;28;19936;-81
2022/09/28 19:33:49;;;;;;;;;;;;;;;8.60;100.00;-25307.09;5023806;28;20397;-82
2022/09/28 19:36:22;;;;;;;;;;;;;;;8.62;100.00;-25307.53;5026311;28;19928;-86
2022/09/28 19:38:48;;;;;;;;;;;;;;;8.59;100.00;-25306.81;5017240;28;19921;-84
2022/09/28 19:41:39;;;;;;;;;;;;;;;8.60;100.00;-25306.94;5023844;28;19939;-81
2022/09/28 19:44:03;;;;;;;;;;;;;;;8.58;100.00;-25306.38;5043777;28;19921;-83
2022/09/28 19:46:31;;;;;;;;;;;;;;;8.59;100.00;-25306.81;5014408;28;19989;-83
2022/09/28 19:49:00;;;;;;;;;;;;;;;8.55;100.00;-25305.47;5006739;28;19917;-82
2022/09/28 19:51:27;;;;;;;;;;;;;;;8.53;100.00;-25305.03;5004958;28;19918;-80
2022/09/28 19:53:54;;;;;;;;;;;;;;;8.49;100.00;-25303.72;4992573;28;19925;-78
2022/09/28 19:56:20;;;;;;;;;;;;;;;8.57;100.00;-25306.22;5025622;28;19913;-85
2022/09/28 19:58:49;;;;;;;;;;;;;;;8.58;100.00;-25306.50;5025716;28;20420;-82
2022/09/28 20:01:16;;;;;;;;;;;;;;;8.63;100.00;-25307.97;5025235;28;19917;-85
2022/09/28 20:03:46;;;;;;;;;;;;;;;8.65;100.00;-25308.28;5002861;28;19921;-85
2022/09/28 20:06:14;;;;;;;;;;;;;;;8.62;100.00;-25307.69;5005021;28;19925;-81
2022/09/28 20:08:40;;;;;;;;;;;;;;;8.63;100.00;-25307.97;5027505;28;19922;-83
2022/09/28 20:11:08;;;;;;;;;;;;;;;8.59;100.00;-25306.81;5021342;28;19929;-80
2022/09/28 20:13:36;;;;;;;;;;;;;;;8.66;100.00;-25308.56;5023375;28;19924;-83
2022/09/28 20:16:09;;;;;;;;;;;;;;;8.70;100.00;-25309.75;5021335;28;19921;-84
2022/09/28 20:18:42;;;;;;;;;;;;;;;8.73;100.00;-25310.63;5025800;28;19925;-84
2022/09/28 20:21:10;;;;;;;;;;;;;;;8.74;100.00;-25311.06;5007064;28;19944;-83
2022/09/28 20:23:39;;;;;;;;;;;;;;;8.69;100.00;-25309.47;4993036;28;19975;-83
2022/09/28 20:26:05;;;;;;;;;;;;;;;8.67;100.00;-25309.00;4992068;28;19925;-81
2022/09/28 20:28:31;;;;;;;;;;;;;;;8.70;100.00;-25309.91;5006493;28;19917;-81
2022/09/28 20:31:01;;;;;;;;;;;;;;;8.70;100.00;-25309.91;5019152;28;19990;-83
2022/09/28 20:33:42;;;;;;;;;;;;;;;8.63;100.00;-25307.84;5000031;28;19925;-79
2022/09/28 20:36:10;;;;;;;;;;;;;;;8.62;100.00;-25307.69;5021458;28;19921;-80
2022/09/28 20:38:39;;;;;;;;;;;;;;;8.64;100.00;-25308.13;5004887;28;19917;-83
2022/09/28 20:41:06;;;;;;;;;;;;;;;8.61;100.00;-25307.41;5025088;28;19917;-77
2022/09/28 20:43:33;;;;;;;;;;;;;;;8.65;100.00;-25308.28;5018439;28;19917;-78
2022/09/28 20:46:02;;;;;;;;;;;;;;;8.63;100.00;-25307.84;5013353;28;19971;-77
2022/09/28 20:48:28;;;;;;;;;;;;;;;8.68;100.00;-25309.16;5016844;28;20409;-80
2022/09/28 20:50:59;;;;;;;;;;;;;;;8.63;100.00;-25307.84;4999965;28;19925;-77
2022/09/28 20:53:26;;;;;;;;;;;;;;;8.65;100.00;-25308.28;5034770;28;19995;-79
2022/09/28 20:55:58;;;;;;;;;;;;;;;8.61;100.00;-25307.25;5030188;28;20383;-79
2022/09/28 20:58:25;;;;;;;;;;;;;;;8.65;100.00;-25308.28;5007084;28;20019;-79
2022/09/28 21:00:51;;;;;;;;;;;;;;;8.66;100.00;-25308.72;4997201;28;19922;-83
2022/09/28 21:03:20;;;;;;;;;;;;;;;8.67;100.00;-25308.88;5003367;28;20056;-82
2022/09/28 21:05:50;;;;;;;;;;;;;;;8.70;100.00;-25309.75;4999219;28;20432;-83
2022/09/28 21:08:24;;;;;;;;;;;;;;;8.75;100.00;-25311.22;5018390;28;19917;-79
2022/09/28 21:10:51;;;;;;;;;;;;;;;8.75;100.00;-25311.22;5002030;28;20578;-79
2022/09/28 21:13:41;;;;;;;;;;;;;;;8.75;100.00;-25311.38;5008793;28;20347;-78
2022/09/28 21:16:07;;;;;;;;;;;;;;;8.82;100.00;-25313.28;5006958;28;19922;-80
2022/09/28 21:18:56;;;;;;;;;;;;;;;8.86;100.00;-25314.47;5017561;28;20327;-80
2022/09/28 21:21:25;;;;;;;;;;;;;;;8.88;100.00;-25314.91;5030574;28;19975;-79
2022/09/28 21:23:56;;;;;;;;;;;;;;;8.85;100.00;-25314.16;5014146;28;20536;-79
2022/09/28 21:26:24;;;;;;;;;;;;;;;8.83;100.00;-25313.44;5027181;28;20369;-79
2022/09/28 21:28:56;;;;;;;;;;;;;;;8.80;100.00;-25312.69;5025289;28;19921;-79